createdAt,value
2018-05-27T00:04:54.482Z,101710.75
2018-05-27T00:09:55.831Z,101705.47
2018-05-27T00:14:57.222Z,101692.28
2018-05-27T00:19:58.525Z,101692.21
2018-05-27T00:25:00.577Z,101688.14
2018-05-27T00:30:01.918Z,101690.81
2018-05-27T00:35:03.343Z,101677.27
2018-05-27T00:40:04.727Z,101671.81
2018-05-27T00:45:06.039Z,101671.00
2018-05-27T00:50:07.347Z,101669.34
2018-05-27T00:55:08.650Z,101668.77
2018-05-27T01:00:09.970Z,101663.08
2018-05-27T01:05:12.162Z,101654.09
2018-05-27T01:10:13.492Z,101648.46
2018-05-27T01:15:14.833Z,101659.83
2018-05-27T01:20:16.193Z,101665.70
2018-05-27T01:25:17.554Z,101663.09
2018-05-27T01:30:18.999Z,101658.41
2018-05-27T01:35:20.310Z,101655.41
2018-05-27T01:40:22.379Z,101652.75
2018-05-27T01:45:23.698Z,101647.19
2018-05-27T01:50:25.013Z,101654.19
2018-05-27T01:55:26.326Z,101650.94
2018-05-27T02:00:27.676Z,101645.72
2018-05-27T02:05:29.752Z,101646.55
2018-05-27T02:10:31.278Z,101653.30
2018-05-27T02:15:33.326Z,101649.14
2018-05-27T02:20:34.725Z,101638.50
2018-05-27T02:25:36.068Z,101643.13
2018-05-27T02:30:38.125Z,101646.11
2018-05-27T02:35:39.486Z,101640.78
2018-05-27T02:40:40.803Z,101632.85
2018-05-27T02:45:42.120Z,101631.61
2018-05-27T02:50:43.480Z,101635.14
2018-05-27T02:55:44.807Z,101617.46
2018-05-27T03:00:46.255Z,101616.52
2018-05-27T03:05:47.811Z,101620.58
2018-05-27T03:10:50.057Z,101626.50
2018-05-27T03:15:51.539Z,101638.51
2018-05-27T03:20:53.188Z,101642.38
2018-05-27T03:25:54.487Z,101630.64
2018-05-27T03:30:56.613Z,101623.66
2018-05-27T03:35:57.949Z,101620.02
2018-05-27T03:40:59.472Z,101627.72
2018-05-27T03:46:01.625Z,101618.02
2018-05-27T03:51:02.994Z,101616.06
2018-05-27T03:56:05.045Z,101625.78
2018-05-27T04:01:06.370Z,101631.84
2018-05-27T04:11:49.336Z,101630.97
2018-05-27T04:16:50.669Z,101645.76
2018-05-27T04:21:51.986Z,101643.91
2018-05-27T04:26:54.172Z,101645.62
2018-05-27T04:31:55.484Z,101650.89
2018-05-27T04:36:57.543Z,101643.05
2018-05-27T04:41:58.873Z,101636.82
2018-05-27T04:47:00.168Z,101633.67
2018-05-27T04:52:02.216Z,101630.27
2018-05-27T04:57:03.936Z,101629.06
2018-05-27T05:02:05.282Z,101634.54
2018-05-27T05:07:06.703Z,101631.56
2018-05-27T05:12:08.078Z,101630.28
2018-05-27T05:17:09.445Z,101629.79
2018-05-27T05:22:11.475Z,101627.72
2018-05-27T05:27:13.032Z,101630.53
2018-05-27T05:32:15.093Z,101628.00
2018-05-27T05:37:16.417Z,101633.25
2018-05-27T05:42:17.728Z,101636.16
2018-05-27T05:47:19.811Z,101637.88
2018-05-27T05:52:21.874Z,101644.39
2018-05-27T05:57:23.217Z,101650.20
2018-05-27T06:02:24.511Z,101655.81
2018-05-27T06:07:26.685Z,101656.49
2018-05-27T06:12:27.990Z,101653.54
2018-05-27T06:17:29.331Z,101655.73
2018-05-27T06:22:30.655Z,101655.88
2018-05-27T06:27:32.029Z,101649.78
2018-05-27T06:32:33.368Z,101662.52
2018-05-27T06:37:35.543Z,101662.16
2018-05-27T06:42:36.866Z,101665.75
2018-05-27T06:47:39.043Z,101676.59
2018-05-27T06:52:40.374Z,101668.24
2018-05-27T06:57:41.727Z,101676.19
2018-05-27T07:02:43.078Z,101669.91
2018-05-27T07:07:44.421Z,101664.37
2018-05-27T07:12:45.706Z,101660.73
2018-05-27T07:17:47.003Z,101653.30
2018-05-27T07:22:48.286Z,101655.80
2018-05-27T07:27:49.635Z,101651.21
2018-05-27T07:32:50.928Z,101652.59
2018-05-27T07:37:52.229Z,101644.95
2018-05-27T07:42:53.634Z,101649.23
2018-05-27T07:47:54.946Z,101640.12
2018-05-27T07:52:57.024Z,101643.55
2018-05-27T07:57:58.323Z,101654.83
2018-05-27T08:02:59.622Z,101646.80
2018-05-27T08:08:01.831Z,101636.50
2018-05-27T08:13:03.929Z,101646.05
2018-05-27T08:18:05.234Z,101636.09
2018-05-27T08:23:06.591Z,101634.13
2018-05-27T08:28:07.895Z,101629.87
2018-05-27T08:33:09.224Z,101632.56
2018-05-27T08:38:10.530Z,101634.86
2018-05-27T08:43:11.813Z,101635.36
2018-05-27T08:48:13.125Z,101624.59
2018-05-27T08:53:14.430Z,101619.92
2018-05-27T08:58:15.734Z,101624.70
2018-05-27T09:03:17.036Z,101619.58
2018-05-27T09:08:19.186Z,101616.27
2018-05-27T09:13:20.482Z,101613.97
2018-05-27T09:18:21.779Z,101608.84
2018-05-27T09:23:23.102Z,101605.52
2018-05-27T09:28:25.159Z,101600.56
2018-05-27T09:33:26.467Z,101601.66
2018-05-27T09:38:27.770Z,101597.20
2018-05-27T09:43:36.043Z,101595.54
2018-05-27T09:48:38.081Z,101589.16
2018-05-27T09:53:39.394Z,101594.18
2018-05-27T09:58:40.725Z,101584.81
2018-05-27T10:03:42.760Z,101581.50
2018-05-27T10:08:44.075Z,101579.05
2018-05-27T10:13:45.379Z,101573.13
2018-05-27T10:18:46.683Z,101581.80
2018-05-27T10:23:48.070Z,101571.50
2018-05-27T10:28:49.382Z,101569.27
2018-05-27T10:33:51.413Z,101569.45
2018-05-27T10:38:53.019Z,101563.93
2018-05-27T10:43:54.381Z,101557.06
2018-05-27T10:48:55.682Z,101555.52
2018-05-27T10:53:57.037Z,101553.69
2018-05-27T10:58:58.322Z,101544.06
2018-05-27T11:03:59.626Z,101536.14
2018-05-27T11:09:01.681Z,101527.00
2018-05-27T11:14:03.050Z,101523.12
2018-05-27T11:19:04.445Z,101509.66
2018-05-27T11:24:05.841Z,101515.45
2018-05-27T11:29:07.157Z,101495.45
2018-05-27T11:34:08.471Z,101494.00
2018-05-27T11:39:10.579Z,101496.91
2018-05-27T11:44:12.618Z,101475.53
2018-05-27T11:49:13.926Z,101462.78
2018-05-27T11:54:15.301Z,101462.34
2018-05-27T11:59:16.582Z,101450.52
2018-05-27T12:04:17.935Z,101430.31
2018-05-27T12:09:19.304Z,101448.99
2018-05-27T12:14:20.629Z,101448.52
2018-05-27T12:19:22.686Z,101451.91
2018-05-27T12:24:24.018Z,101440.61
2018-05-27T12:29:26.487Z,101439.04
2018-05-27T12:34:27.801Z,101433.78
2018-05-27T12:39:29.097Z,101439.47
2018-05-27T12:44:30.410Z,101433.94
2018-05-27T12:49:32.464Z,101428.93
2018-05-27T12:54:33.780Z,101428.86
2018-05-27T12:59:35.075Z,101426.80
2018-05-27T13:04:36.392Z,101411.50
2018-05-27T13:09:37.689Z,101402.64
2018-05-27T13:14:38.981Z,101399.59
2018-05-27T13:19:40.288Z,101398.39
2018-05-27T13:24:41.586Z,101407.34
2018-05-27T13:29:42.927Z,101412.61
2018-05-27T13:34:44.238Z,101389.67
2018-05-27T13:39:47.494Z,101377.45
2018-05-27T13:44:48.822Z,101376.95
2018-05-27T13:49:50.121Z,101375.87
2018-05-27T13:54:52.163Z,101365.05
2018-05-27T13:59:53.470Z,101347.72
2018-05-27T14:04:54.766Z,101341.86
2018-05-27T14:09:56.067Z,101340.43
2018-05-27T14:14:57.393Z,101339.45
2018-05-27T14:19:58.684Z,101332.25
2018-05-27T14:24:59.990Z,101333.33
2018-05-27T14:30:01.316Z,101324.09
2018-05-27T14:35:02.662Z,101324.20
2018-05-27T14:40:04.020Z,101331.46
2018-05-27T14:45:06.073Z,101342.49
2018-05-27T14:50:07.377Z,101346.89
2018-05-27T14:55:08.723Z,101336.47
2018-05-27T15:00:10.035Z,101342.14
2018-05-27T15:05:11.339Z,101338.59
2018-05-27T15:10:12.654Z,101333.36
2018-05-27T15:15:13.958Z,101338.23
2018-05-27T15:20:15.989Z,101325.20
2018-05-27T15:25:17.311Z,101325.37
2018-05-27T15:30:18.602Z,101324.45
2018-05-27T15:35:19.940Z,101321.95
2018-05-27T15:40:22.000Z,101320.70
2018-05-27T15:45:23.470Z,101322.45
2018-05-27T15:50:24.790Z,101323.55
2018-05-27T15:55:26.083Z,101323.66
2018-05-27T16:00:27.394Z,101313.31
2018-05-27T16:05:29.290Z,101309.00
2018-05-27T16:10:30.692Z,101305.11
2018-05-27T16:15:32.741Z,101294.19
2018-05-27T16:20:34.057Z,101280.08
2018-05-27T16:25:35.362Z,101273.23
2018-05-27T16:30:37.529Z,101272.89
2018-05-27T16:35:38.834Z,101266.06
2018-05-27T16:40:40.171Z,101274.39
2018-05-27T16:45:42.268Z,101271.89
2018-05-27T16:50:43.526Z,101271.98
2018-05-27T16:55:44.856Z,101281.61
2018-05-27T17:00:46.885Z,101294.27
2018-05-27T17:05:48.185Z,101284.30
2018-05-27T17:10:49.486Z,101287.92
2018-05-27T17:15:50.839Z,101289.95
2018-05-27T17:20:52.936Z,101296.50
2018-05-27T17:25:54.216Z,101298.26
2018-05-27T17:30:56.237Z,101309.66
2018-05-27T17:35:58.291Z,101303.02
2018-05-27T17:40:59.746Z,101305.99
2018-05-27T17:46:01.049Z,101311.63
2018-05-27T17:51:03.140Z,101312.28
2018-05-27T17:56:04.675Z,101305.17
2018-05-27T18:01:06.765Z,101307.35
2018-05-27T18:06:08.510Z,101314.97
2018-05-27T18:11:10.746Z,101319.90
2018-05-27T18:16:12.930Z,101298.85
2018-05-27T18:21:14.218Z,101299.94
2018-05-27T18:26:15.517Z,101293.70
2018-05-27T18:31:17.670Z,101284.25
2018-05-27T18:36:19.006Z,101278.51
2018-05-27T18:41:20.306Z,101282.13
2018-05-27T18:46:21.606Z,101277.84
2018-05-27T18:51:22.914Z,101282.86
2018-05-27T18:56:24.205Z,101284.47
2018-05-27T19:01:25.538Z,101294.18
2018-05-27T19:06:26.829Z,101297.89
2018-05-27T19:11:28.118Z,101306.40
2018-05-27T19:16:30.230Z,101310.83
2018-05-27T19:21:31.532Z,101324.15
2018-05-27T19:26:33.578Z,101353.86
2018-05-27T19:31:34.862Z,101359.43
2018-05-27T19:36:36.165Z,101352.34
2018-05-27T19:41:37.458Z,101365.92
2018-05-27T19:46:38.755Z,101378.78
2018-05-27T19:51:40.041Z,101378.03
2018-05-27T19:56:41.342Z,101383.77
2018-05-27T20:01:42.639Z,101388.71
2018-05-27T20:06:43.950Z,101393.80
2018-05-27T20:11:46.001Z,101384.62
2018-05-27T20:16:47.405Z,101389.83
2018-05-27T20:21:48.697Z,101392.45
2018-05-27T20:26:49.994Z,101392.20
2018-05-27T20:31:51.315Z,101385.10
2018-05-27T20:36:53.346Z,101376.09
2018-05-27T20:41:54.635Z,101384.30
2018-05-27T20:46:55.921Z,101385.05
2018-05-27T20:51:57.226Z,101389.19
2018-05-27T20:56:58.531Z,101396.89
2018-05-27T21:01:59.854Z,101400.90
2018-05-27T21:07:01.154Z,101395.41
2018-05-27T21:12:03.203Z,101385.48
2018-05-27T21:17:04.498Z,101381.73
2018-05-27T21:22:05.786Z,101384.22
2018-05-27T21:27:07.096Z,101386.19
2018-05-27T21:32:08.389Z,101396.42
2018-05-27T21:37:09.683Z,101403.16
2018-05-27T21:42:10.977Z,101404.13
2018-05-27T21:47:12.258Z,101409.41
2018-05-27T21:52:13.559Z,101416.28
2018-05-27T21:57:14.842Z,101408.08
2018-05-27T22:02:17.010Z,101409.77
2018-05-27T22:07:18.319Z,101397.98
2018-05-27T22:12:19.613Z,101396.56
2018-05-27T22:17:20.906Z,101395.00
2018-05-27T22:22:22.217Z,101397.92
2018-05-27T22:27:24.255Z,101403.05
2018-05-27T22:32:25.558Z,101399.41
2018-05-27T22:37:26.850Z,101397.82
2018-05-27T22:42:28.142Z,101389.42
2018-05-27T22:47:29.441Z,101402.20
2018-05-27T22:52:30.744Z,101402.63
2018-05-27T22:57:32.046Z,101398.48
2018-05-27T23:02:33.371Z,101402.45
2018-05-27T23:07:34.671Z,101386.52
2018-05-27T23:12:35.962Z,101385.19
2018-05-27T23:17:37.276Z,101389.48
2018-05-27T23:22:38.603Z,101372.20
2018-05-27T23:27:40.637Z,101362.05
2018-05-27T23:32:48.793Z,101365.80
2018-05-27T23:37:50.102Z,101365.40
2018-05-27T23:42:51.398Z,101368.27
2018-05-27T23:47:52.715Z,101375.75
2018-05-27T23:52:54.021Z,101378.48
2018-05-27T23:57:56.066Z,101371.65
